createdAt,value
2018-12-14T00:00:37.881Z,29.27
2018-12-14T00:03:17.707Z,28.97
2018-12-14T00:05:46.408Z,29.83
2018-12-14T00:08:15.145Z,27.90
2018-12-14T00:10:43.835Z,29.47
2018-12-14T00:13:12.742Z,28.73
2018-12-14T00:15:41.613Z,29.53
2018-12-14T00:18:10.435Z,33.87
2018-12-14T00:20:39.906Z,27.20
2018-12-14T00:23:08.674Z,29.87
2018-12-14T00:25:37.458Z,27.60
2018-12-14T00:28:06.211Z,32.03
2018-12-14T00:30:34.885Z,28.90
2018-12-14T00:33:03.683Z,29.97
2018-12-14T00:35:32.525Z,31.23
2018-12-14T00:38:01.225Z,30.60
2018-12-14T00:40:30.016Z,28.57
2018-12-14T00:42:59.475Z,29.17
2018-12-14T00:45:28.328Z,27.33
2018-12-14T00:47:57.123Z,28.80
2018-12-14T00:50:26.110Z,28.60
2018-12-14T00:52:54.729Z,27.33
2018-12-14T00:55:23.608Z,25.80
2018-12-14T00:57:52.459Z,26.73
2018-12-14T01:00:24.343Z,26.70
2018-12-14T01:02:53.052Z,29.17
2018-12-14T01:05:22.027Z,28.40
2018-12-14T01:07:51.109Z,28.33
2018-12-14T01:10:19.827Z,29.47
2018-12-14T01:12:48.611Z,29.20
2018-12-14T01:15:17.326Z,30.50
2018-12-14T01:17:46.029Z,32.03
2018-12-14T01:20:14.979Z,31.23
2018-12-14T01:22:43.729Z,30.40
2018-12-14T01:25:12.433Z,30.90
2018-12-14T01:27:41.170Z,30.87
2018-12-14T01:30:10.209Z,29.07
2018-12-14T01:32:39.040Z,31.40
2018-12-14T01:35:07.929Z,31.90
2018-12-14T01:37:36.756Z,31.13
2018-12-14T01:40:06.290Z,35.40
2018-12-14T01:42:35.160Z,31.43
2018-12-14T01:45:04.540Z,31.73
2018-12-14T01:47:33.458Z,32.00
2018-12-14T01:50:02.969Z,32.20
2018-12-14T01:52:32.087Z,35.20
2018-12-14T01:55:01.837Z,32.23
2018-12-14T01:57:35.691Z,30.40
2018-12-14T02:00:04.759Z,33.33
2018-12-14T02:02:34.255Z,29.53
2018-12-14T02:05:02.979Z,33.73
2018-12-14T02:07:31.670Z,30.53
2018-12-14T02:10:00.343Z,35.63
2018-12-14T02:12:29.156Z,33.80
2018-12-14T02:17:38.205Z,31.67
2018-12-14T02:20:07.396Z,33.03
2018-12-14T02:22:36.183Z,32.40
2018-12-14T02:25:05.015Z,32.47
2018-12-14T02:27:33.946Z,34.17
2018-12-14T02:30:12.528Z,32.30
2018-12-14T02:32:46.421Z,33.67
2018-12-14T02:35:15.258Z,34.87
2018-12-14T02:37:44.252Z,33.87
2018-12-14T02:40:14.112Z,32.47
2018-12-14T02:42:42.895Z,33.83
2018-12-14T02:45:11.794Z,35.00
2018-12-14T02:47:40.497Z,35.83
2018-12-14T02:50:17.030Z,34.03
2018-12-14T02:52:45.836Z,33.30
2018-12-14T02:55:14.727Z,36.63
2018-12-14T02:57:43.541Z,36.40
2018-12-14T03:00:12.470Z,33.43
2018-12-14T03:02:41.362Z,32.40
2018-12-14T03:05:11.478Z,34.67
2018-12-14T03:07:40.413Z,35.07
2018-12-14T03:10:09.294Z,35.30
2018-12-14T03:12:38.053Z,35.87
2018-12-14T03:15:07.430Z,31.97
2018-12-14T03:17:36.677Z,32.53
2018-12-14T03:20:06.329Z,32.50
2018-12-14T03:22:35.455Z,37.13
2018-12-14T03:25:04.407Z,33.07
2018-12-14T03:27:33.451Z,34.77
2018-12-14T03:30:02.205Z,36.80
2018-12-14T03:32:31.185Z,35.97
2018-12-14T03:34:59.831Z,34.60
2018-12-14T03:37:28.598Z,30.93
2018-12-14T03:39:57.234Z,35.00
2018-12-14T03:42:33.976Z,36.03
2018-12-14T03:44:57.986Z,37.47
2018-12-14T03:47:29.720Z,40.10
2018-12-14T03:49:58.518Z,37.67
2018-12-14T03:52:27.984Z,41.70
2018-12-14T03:54:56.797Z,41.30
2018-12-14T03:57:26.082Z,40.47
2018-12-14T03:59:54.833Z,40.70
2018-12-14T04:02:23.713Z,35.00
2018-12-14T04:04:52.502Z,42.03
2018-12-14T04:07:21.954Z,38.63
2018-12-14T04:09:50.657Z,37.03
2018-12-14T04:12:19.343Z,39.20
2018-12-14T04:14:48.235Z,37.30
2018-12-14T04:17:16.985Z,38.00
2018-12-14T04:19:45.703Z,38.90
2018-12-14T04:22:14.482Z,41.17
2018-12-14T04:24:43.286Z,39.10
2018-12-14T04:27:14.898Z,39.53
2018-12-14T04:29:43.595Z,39.37
2018-12-14T04:32:13.301Z,39.27
2018-12-14T04:34:42.119Z,37.37
2018-12-14T04:37:12.215Z,39.27
2018-12-14T04:39:41.018Z,39.40
2018-12-14T04:42:09.809Z,39.27
2018-12-14T04:44:40.265Z,37.40
2018-12-14T04:47:09.965Z,40.00
2018-12-14T04:49:38.919Z,38.83
2018-12-14T04:52:14.099Z,40.50
2018-12-14T04:54:42.951Z,38.27
2018-12-14T04:57:13.210Z,37.53
2018-12-14T04:59:42.101Z,39.33
2018-12-14T05:02:17.922Z,37.23
2018-12-14T05:04:47.808Z,39.37
2018-12-14T05:07:19.827Z,37.97
2018-12-14T05:09:48.686Z,35.43
2018-12-14T05:12:17.787Z,35.47
2018-12-14T05:14:49.902Z,38.27
2018-12-14T05:17:22.247Z,40.00
2018-12-14T05:19:52.404Z,38.20
2018-12-14T05:22:21.460Z,37.90
2018-12-14T05:24:52.305Z,36.73
2018-12-14T05:27:21.454Z,39.43
2018-12-14T05:29:50.468Z,36.63
2018-12-14T05:32:19.362Z,37.60
2018-12-14T05:34:48.226Z,34.23
2018-12-14T05:37:27.785Z,32.60
2018-12-14T05:39:57.615Z,34.20
2018-12-14T05:42:26.412Z,33.90
2018-12-14T05:44:55.295Z,35.87
2018-12-14T05:47:24.186Z,34.33
2018-12-14T05:49:52.903Z,32.77
2018-12-14T05:52:21.584Z,33.47
2018-12-14T05:54:50.442Z,35.17
2018-12-14T05:57:19.244Z,31.60
2018-12-14T05:59:47.973Z,34.07
2018-12-14T06:02:16.821Z,30.10
2018-12-14T06:04:47.063Z,31.40
2018-12-14T06:07:15.765Z,30.70
2018-12-14T06:09:44.517Z,28.57
2018-12-14T06:12:13.383Z,28.73
2018-12-14T06:14:44.777Z,29.50
2018-12-14T06:17:14.364Z,28.97
2018-12-14T06:19:43.187Z,28.53
2018-12-14T06:22:12.080Z,29.43
2018-12-14T06:24:40.853Z,26.03
2018-12-14T06:27:09.846Z,29.07
2018-12-14T06:29:38.862Z,29.23
2018-12-14T06:32:07.567Z,28.50
2018-12-14T06:34:36.409Z,31.00
2018-12-14T06:37:05.289Z,29.63
2018-12-14T06:39:34.128Z,28.63
2018-12-14T06:42:03.172Z,27.10
2018-12-14T06:44:32.064Z,28.17
2018-12-14T06:47:01.546Z,26.97
2018-12-14T06:49:34.109Z,28.43
2018-12-14T06:52:11.821Z,29.03
2018-12-14T06:54:40.620Z,28.33
2018-12-14T06:57:09.483Z,24.33
2018-12-14T06:59:38.429Z,25.07
2018-12-14T07:02:07.216Z,23.40
2018-12-14T07:04:36.118Z,24.43
2018-12-14T07:07:05.052Z,24.23
2018-12-14T07:09:34.303Z,25.20
2018-12-14T07:12:02.961Z,28.00
2018-12-14T07:14:31.687Z,26.77
2018-12-14T07:17:00.511Z,27.03
2018-12-14T07:19:29.226Z,28.13
2018-12-14T07:21:57.962Z,28.07
2018-12-14T07:24:26.842Z,31.60
2018-12-14T07:26:55.768Z,31.77
2018-12-14T07:29:24.712Z,28.53
2018-12-14T07:31:53.416Z,32.03
2018-12-14T07:34:22.819Z,31.33
2018-12-14T07:36:51.874Z,32.20
2018-12-14T07:39:20.761Z,33.30
2018-12-14T07:41:49.613Z,32.53
2018-12-14T07:44:18.407Z,37.20
2018-12-14T07:46:47.397Z,34.10
2018-12-14T07:49:23.523Z,33.30
2018-12-14T07:51:52.352Z,34.67
2018-12-14T07:54:21.192Z,35.73
2018-12-14T07:56:50.841Z,39.17
2018-12-14T07:59:19.652Z,34.10
2018-12-14T08:01:48.395Z,32.40
2018-12-14T08:04:17.311Z,35.37
2018-12-14T08:06:47.247Z,37.33
2018-12-14T08:09:16.358Z,35.77
2018-12-14T08:11:45.326Z,32.23
2018-12-14T08:14:14.371Z,34.27
2018-12-14T08:16:43.240Z,34.67
2018-12-14T08:19:12.982Z,40.00
2018-12-14T08:21:42.202Z,37.17
2018-12-14T08:24:11.167Z,37.10
2018-12-14T08:26:39.991Z,40.07
2018-12-14T08:29:09.797Z,33.33
2018-12-14T08:31:39.990Z,36.10
2018-12-14T08:34:09.526Z,35.70
2018-12-14T08:36:38.586Z,34.67
2018-12-14T08:39:08.160Z,34.30
2018-12-14T08:41:38.420Z,34.37
2018-12-14T08:44:07.878Z,33.03
2018-12-14T08:46:37.177Z,33.07
2018-12-14T08:49:06.350Z,32.70
2018-12-14T08:51:35.248Z,33.87
2018-12-14T08:54:04.243Z,34.23
2018-12-14T08:56:34.647Z,73.23
2018-12-14T08:59:05.095Z,93.30
2018-12-14T09:01:34.819Z,33.60
2018-12-14T09:04:05.432Z,30.50
2018-12-14T09:06:36.331Z,31.13
2018-12-14T09:09:08.443Z,32.97
2018-12-14T09:11:37.882Z,28.80
2018-12-14T09:14:07.526Z,32.10
2018-12-14T09:16:36.776Z,28.67
2018-12-14T09:19:06.983Z,28.33
2018-12-14T09:21:36.217Z,34.20
2018-12-14T09:24:06.705Z,30.70
2018-12-14T09:26:36.930Z,27.87
2018-12-14T09:29:06.638Z,29.63
2018-12-14T09:31:36.415Z,32.63
2018-12-14T09:34:05.467Z,31.30
2018-12-14T09:36:34.427Z,31.63
2018-12-14T09:39:04.839Z,26.77
2018-12-14T09:41:34.187Z,29.80
2018-12-14T09:44:03.459Z,27.70
2018-12-14T09:46:37.020Z,27.27
2018-12-14T09:49:03.713Z,28.43
2018-12-14T09:51:33.963Z,26.83
2018-12-14T09:54:04.320Z,30.43
2018-12-14T09:56:33.747Z,25.83
2018-12-14T09:59:02.682Z,26.03
2018-12-14T10:01:31.479Z,23.83
2018-12-14T10:04:00.514Z,27.13
2018-12-14T10:06:30.111Z,26.83
2018-12-14T10:08:59.103Z,24.37
2018-12-14T10:11:28.719Z,22.77
2018-12-14T10:14:00.797Z,22.23
2018-12-14T10:16:29.319Z,21.93
2018-12-14T10:18:58.637Z,26.23
2018-12-14T10:21:27.443Z,24.10
2018-12-14T10:23:56.812Z,22.83
2018-12-14T10:26:25.881Z,23.70
2018-12-14T10:28:54.864Z,23.00
2018-12-14T10:31:23.680Z,23.93
2018-12-14T10:33:52.482Z,23.83
2018-12-14T10:36:22.024Z,22.00
2018-12-14T10:38:50.924Z,23.80
2018-12-14T10:41:20.797Z,23.47
2018-12-14T10:43:50.200Z,26.47
2018-12-14T10:46:19.231Z,26.30
2018-12-14T10:48:49.042Z,28.00
2018-12-14T10:51:18.218Z,24.40
2018-12-14T10:53:47.026Z,23.20
2018-12-14T10:56:16.541Z,25.97
2018-12-14T10:58:45.578Z,25.27
2018-12-14T11:01:19.597Z,26.47
2018-12-14T11:03:48.344Z,24.23
2018-12-14T11:06:17.222Z,23.60
2018-12-14T11:08:46.245Z,22.37
2018-12-14T11:11:15.831Z,22.27
2018-12-14T11:13:44.840Z,24.43
2018-12-14T11:16:13.809Z,27.17
2018-12-14T11:18:42.525Z,25.13
2018-12-14T11:21:11.552Z,27.73
2018-12-14T11:23:40.391Z,25.27
2018-12-14T11:26:11.955Z,23.23
2018-12-14T11:28:41.577Z,23.60
2018-12-14T11:31:11.476Z,22.90
2018-12-14T11:33:41.781Z,28.30
2018-12-14T11:36:10.639Z,25.73
2018-12-14T11:38:39.633Z,22.90
2018-12-14T11:41:08.480Z,23.63
2018-12-14T11:43:37.580Z,25.00
2018-12-14T11:46:06.340Z,23.63
2018-12-14T11:48:35.236Z,26.03
2018-12-14T11:51:04.210Z,24.33
2018-12-14T11:53:33.102Z,22.93
2018-12-14T11:56:02.438Z,24.60
2018-12-14T11:58:31.179Z,26.27
2018-12-14T12:01:00.249Z,23.13
2018-12-14T12:03:29.427Z,25.60
2018-12-14T12:05:58.397Z,26.57
2018-12-14T12:08:27.306Z,26.73
2018-12-14T12:10:56.232Z,23.30
2018-12-14T12:13:25.085Z,25.83
2018-12-14T12:15:53.882Z,22.60
2018-12-14T12:18:22.909Z,23.47
2018-12-14T12:20:53.018Z,25.80
2018-12-14T12:23:23.056Z,25.70
2018-12-14T12:25:52.694Z,26.53
2018-12-14T12:28:22.162Z,27.40
2018-12-14T12:30:53.140Z,26.70
2018-12-14T12:33:24.587Z,26.07
2018-12-14T12:35:54.520Z,25.33
2018-12-14T12:38:24.189Z,27.27
2018-12-14T12:40:53.810Z,27.23
2018-12-14T12:43:23.866Z,29.63
2018-12-14T12:45:56.418Z,26.70
2018-12-14T12:48:25.851Z,29.10
2018-12-14T12:51:02.854Z,29.50
2018-12-14T12:53:28.433Z,26.70
2018-12-14T12:55:58.035Z,26.93
2018-12-14T12:58:28.662Z,28.60
2018-12-14T13:01:03.638Z,25.00
2018-12-14T13:03:32.768Z,23.77
2018-12-14T13:06:02.136Z,31.77
2018-12-14T13:08:31.492Z,28.27
2018-12-14T13:11:02.235Z,30.43
2018-12-14T13:13:31.538Z,24.67
2018-12-14T13:16:17.329Z,28.17
2018-12-14T13:18:48.559Z,28.83
2018-12-14T13:21:19.215Z,30.30
2018-12-14T13:23:50.581Z,28.40
2018-12-14T13:26:20.090Z,29.13
2018-12-14T13:29:09.259Z,28.87
2018-12-14T13:31:38.750Z,29.67
2018-12-14T13:34:09.084Z,27.23
2018-12-14T13:36:38.849Z,30.50
2018-12-14T13:39:08.589Z,27.87
2018-12-14T13:41:39.068Z,28.80
2018-12-14T13:44:08.656Z,28.13
2018-12-14T13:52:56.080Z,27.17
2018-12-14T13:55:25.147Z,26.27
2018-12-14T13:57:54.467Z,24.77
2018-12-14T14:00:23.528Z,25.93
2018-12-14T14:02:53.086Z,25.00
2018-12-14T14:05:23.973Z,24.80
2018-12-14T14:07:53.175Z,29.90
2018-12-14T14:10:23.168Z,27.97
2018-12-14T14:12:52.376Z,24.40
2018-12-14T14:15:21.415Z,24.43
2018-12-14T14:17:50.641Z,26.80
2018-12-14T14:20:21.329Z,27.73
2018-12-14T14:22:50.495Z,25.40
2018-12-14T14:25:19.537Z,24.33
2018-12-14T14:27:51.087Z,26.30
2018-12-14T14:30:20.648Z,26.33
2018-12-14T14:32:50.264Z,25.40
2018-12-14T14:35:19.321Z,32.63
2018-12-14T14:37:48.731Z,26.73
2018-12-14T14:40:23.288Z,28.90
2018-12-14T14:43:01.776Z,29.00
2018-12-14T14:45:31.362Z,25.20
2018-12-14T14:48:00.414Z,26.07
2018-12-14T14:50:29.860Z,27.97
2018-12-14T14:52:59.384Z,29.63
2018-12-14T14:55:28.356Z,37.50
2018-12-14T14:57:58.444Z,31.03
2018-12-14T15:00:29.901Z,27.70
2018-12-14T15:02:59.777Z,37.03
2018-12-14T15:05:28.972Z,26.80
2018-12-14T15:07:57.990Z,30.33
2018-12-14T15:10:28.908Z,28.33
2018-12-14T15:13:01.677Z,26.00
2018-12-14T15:15:37.065Z,28.47
2018-12-14T15:18:07.903Z,28.17
2018-12-14T15:20:39.733Z,25.40
2018-12-14T15:23:18.166Z,25.83
2018-12-14T15:25:50.649Z,24.70
2018-12-14T15:28:20.424Z,24.50
2018-12-14T15:30:54.184Z,33.53
2018-12-14T15:33:24.473Z,33.37
2018-12-14T15:35:53.564Z,50.03
2018-12-14T15:38:22.965Z,25.33
2018-12-14T15:40:51.845Z,24.73
2018-12-14T15:43:20.817Z,24.10
2018-12-14T15:45:50.748Z,27.07
2018-12-14T15:48:21.206Z,26.93
2018-12-14T15:50:50.359Z,27.47
2018-12-14T15:53:20.346Z,29.27
2018-12-14T15:55:51.461Z,32.07
2018-12-14T15:58:20.690Z,35.47
2018-12-14T16:00:51.088Z,34.63
2018-12-14T16:03:22.579Z,35.07
2018-12-14T16:05:52.075Z,41.77
2018-12-14T16:08:20.818Z,33.50
2018-12-14T16:10:52.524Z,42.10
2018-12-14T16:13:21.423Z,31.80
2018-12-14T16:15:50.532Z,32.40
2018-12-14T16:18:20.513Z,30.63
2018-12-14T16:20:49.605Z,26.43
2018-12-14T16:23:18.670Z,24.37
2018-12-14T16:25:47.721Z,26.67
2018-12-14T16:28:16.526Z,20.57
2018-12-14T16:30:45.370Z,25.57
2018-12-14T16:33:14.177Z,25.33
2018-12-14T16:35:42.992Z,24.30
2018-12-14T16:38:11.809Z,28.83
2018-12-14T16:40:40.585Z,24.83
2018-12-14T16:43:09.568Z,24.80
2018-12-14T16:45:39.071Z,22.97
2018-12-14T16:48:07.864Z,23.53
2018-12-14T16:50:36.838Z,20.17
2018-12-14T16:53:06.634Z,21.87
2018-12-14T16:55:35.442Z,20.73
2018-12-14T16:58:04.292Z,20.93
2018-12-14T17:00:33.144Z,20.17
2018-12-14T17:03:02.440Z,20.10
2018-12-14T17:05:31.190Z,19.93
2018-12-14T17:08:00.924Z,21.87
2018-12-14T17:10:29.879Z,21.13
2018-12-14T17:13:02.394Z,21.13
2018-12-14T17:15:33.430Z,20.67
2018-12-14T17:18:02.188Z,26.67
2018-12-14T17:20:31.132Z,26.60
2018-12-14T17:23:00.088Z,31.50
2018-12-14T17:25:28.919Z,25.50
2018-12-14T17:30:45.746Z,22.10
2018-12-14T17:33:16.355Z,23.77
2018-12-14T17:35:46.318Z,20.60
2018-12-14T17:38:15.214Z,24.83
2018-12-14T17:40:44.306Z,25.63
2018-12-14T17:43:13.862Z,24.37
2018-12-14T17:45:42.997Z,21.80
2018-12-14T17:48:11.897Z,24.63
2018-12-14T17:50:40.683Z,45.43
2018-12-14T17:53:09.541Z,36.57
2018-12-14T17:55:38.597Z,30.40
2018-12-14T17:58:07.730Z,24.30
2018-12-14T18:00:37.335Z,25.00
2018-12-14T18:03:06.097Z,26.30
2018-12-14T18:05:34.930Z,41.50
2018-12-14T18:08:03.840Z,41.40
2018-12-14T18:10:32.871Z,30.53
2018-12-14T18:13:01.897Z,28.70
2018-12-14T18:15:30.767Z,24.40
2018-12-14T18:17:59.690Z,25.37
2018-12-14T18:20:28.685Z,20.33
2018-12-14T18:22:59.342Z,21.60
2018-12-14T18:25:28.620Z,20.03
2018-12-14T18:27:57.839Z,23.03
2018-12-14T18:30:27.554Z,27.83
2018-12-14T18:32:57.799Z,24.73
2018-12-14T18:35:26.873Z,29.53
2018-12-14T18:37:55.756Z,28.37
2018-12-14T18:40:24.619Z,27.93
2018-12-14T18:42:53.478Z,29.00
2018-12-14T18:45:22.755Z,22.97
2018-12-14T18:47:51.739Z,27.00
2018-12-14T18:50:20.403Z,22.80
2018-12-14T18:52:49.263Z,27.03
2018-12-14T18:55:18.135Z,25.87
2018-12-14T18:57:47.313Z,28.87
2018-12-14T19:00:15.974Z,24.37
2018-12-14T19:02:44.898Z,27.13
2018-12-14T19:05:14.185Z,30.00
2018-12-14T19:07:44.094Z,32.37
2018-12-14T19:10:13.698Z,31.37
2018-12-14T19:12:43.008Z,56.40
2018-12-14T19:15:12.408Z,47.30
2018-12-14T19:17:41.120Z,34.03
2018-12-14T19:20:09.891Z,27.93
2018-12-14T19:22:38.544Z,29.20
2018-12-14T19:25:07.418Z,31.20
2018-12-14T19:27:36.175Z,34.50
2018-12-14T19:30:08.836Z,32.37
2018-12-14T19:32:40.112Z,36.33
2018-12-14T19:35:16.722Z,35.33
2018-12-14T19:37:45.437Z,55.20
2018-12-14T19:40:14.360Z,62.40
2018-12-14T19:42:43.190Z,42.47
2018-12-14T19:45:12.015Z,44.80
2018-12-14T19:47:40.699Z,39.93
2018-12-14T19:50:11.521Z,37.30
2018-12-14T19:52:40.323Z,37.93
2018-12-14T19:55:09.299Z,36.93
2018-12-14T19:57:38.034Z,36.20
2018-12-14T20:00:10.583Z,38.13
2018-12-14T20:02:39.519Z,34.53
2018-12-14T20:05:08.555Z,34.57
2018-12-14T20:07:37.239Z,37.53
2018-12-14T20:10:06.919Z,35.57
2018-12-14T20:12:35.572Z,42.00
2018-12-14T20:15:05.116Z,36.53
2018-12-14T20:17:35.730Z,31.87
2018-12-14T20:20:05.122Z,35.73
2018-12-14T20:22:33.906Z,37.07
2018-12-14T20:25:02.844Z,33.57
2018-12-14T20:27:31.619Z,37.67
2018-12-14T20:30:00.464Z,35.47
2018-12-14T20:32:29.269Z,38.00
2018-12-14T20:34:58.269Z,41.87
2018-12-14T20:37:27.321Z,39.20
2018-12-14T20:39:56.176Z,43.37
2018-12-14T20:42:25.066Z,38.93
2018-12-14T20:44:53.906Z,40.30
2018-12-14T20:47:24.069Z,41.43
2018-12-14T20:49:52.966Z,45.00
2018-12-14T20:52:22.060Z,42.83
2018-12-14T20:54:50.804Z,45.97
2018-12-14T20:57:20.420Z,41.53
2018-12-14T20:59:49.219Z,44.47
2018-12-14T21:02:18.113Z,42.50
2018-12-14T21:04:47.144Z,42.47
2018-12-14T21:07:16.154Z,45.10
2018-12-14T21:09:44.936Z,43.50
2018-12-14T21:12:13.807Z,45.53
2018-12-14T21:14:43.612Z,49.47
2018-12-14T21:17:12.308Z,46.27
2018-12-14T21:19:41.625Z,52.13
2018-12-14T21:22:13.092Z,48.97
2018-12-14T21:24:42.622Z,48.20
2018-12-14T21:27:12.081Z,51.03
2018-12-14T21:29:40.826Z,51.07
2018-12-14T21:32:13.361Z,48.20
2018-12-14T21:34:43.431Z,49.47
2018-12-14T21:37:12.409Z,45.83
2018-12-14T21:39:41.180Z,46.77
2018-12-14T21:42:09.901Z,50.33
2018-12-14T21:44:38.536Z,50.83
2018-12-14T21:47:07.267Z,52.67
2018-12-14T21:49:36.282Z,52.00
2018-12-14T21:52:04.997Z,47.13
2018-12-14T21:54:33.825Z,49.50
2018-12-14T21:57:02.776Z,52.77
2018-12-14T21:59:31.544Z,49.67
2018-12-14T22:02:00.253Z,49.67
2018-12-14T22:04:29.109Z,50.33
2018-12-14T22:06:58.549Z,53.50
2018-12-14T22:09:27.371Z,55.50
2018-12-14T22:11:56.184Z,48.83
2018-12-14T22:14:24.854Z,49.07
2018-12-14T22:16:53.680Z,51.17
2018-12-14T22:19:22.748Z,51.73
2018-12-14T22:21:51.412Z,49.60
2018-12-14T22:24:20.145Z,54.23
2018-12-14T22:26:51.019Z,51.83
2018-12-14T22:29:21.867Z,52.50
2018-12-14T22:31:50.583Z,48.17
2018-12-14T22:34:20.157Z,50.07
2018-12-14T22:36:49.023Z,50.27
2018-12-14T22:39:18.269Z,46.80
2018-12-14T22:41:47.072Z,49.53
2018-12-14T22:44:21.412Z,47.00
2018-12-14T22:46:47.639Z,47.60
2018-12-14T22:49:16.365Z,44.00
2018-12-14T22:51:46.073Z,44.63
2018-12-14T22:54:15.240Z,45.83
2018-12-14T22:56:44.269Z,43.30
2018-12-14T22:59:13.838Z,41.97
2018-12-14T23:01:42.728Z,48.37
2018-12-14T23:04:12.681Z,45.90
2018-12-14T23:06:41.722Z,47.20
2018-12-14T23:09:11.375Z,42.80
2018-12-14T23:11:40.186Z,45.00
2018-12-14T23:14:08.915Z,45.83
2018-12-14T23:16:37.697Z,45.97
2018-12-14T23:19:06.385Z,45.70
2018-12-14T23:21:35.008Z,41.77
2018-12-14T23:24:03.808Z,41.57
2018-12-14T23:26:32.472Z,37.63
2018-12-14T23:29:01.198Z,42.70
2018-12-14T23:31:29.955Z,41.93
2018-12-14T23:33:58.687Z,45.60
2018-12-14T23:36:27.452Z,38.77
2018-12-14T23:38:56.135Z,42.97
2018-12-14T23:41:25.725Z,40.77
2018-12-14T23:43:55.088Z,36.07
2018-12-14T23:46:23.904Z,36.20
2018-12-14T23:48:52.530Z,33.97
2018-12-14T23:51:22.412Z,36.23
2018-12-14T23:53:51.088Z,35.33
2018-12-14T23:56:19.905Z,33.60
2018-12-14T23:58:48.644Z,36.70
